sensor_id;sensor_type;location;lat;lon;timestamp;pressure;altitude;pressure_sealevel;temperature;humidity
64025;BME280;50266;57.446;26.936;2023-02-03T00:00:38;98804.52;;;-4.58;100.0
64025;BME280;50266;57.446;26.936;2023-02-03T00:01:38;98808.91;;;-4.63;100.0
64025;BME280;50266;57.446;26.936;2023-02-03T00:02:38;98809.42;;;-4.65;100.0
64025;BME280;50266;57.446;26.936;2023-02-03T00:03:38;98810.27;;;-4.67;100.0
64025;BME280;50266;57.446;26.936;2023-02-03T00:04:38;98810.73;;;-4.81;100.0
64025;BME280;50266;57.446;26.936;2023-02-03T00:05:38;98809.16;;;-4.89;100.0
64025;BME280;50266;57.446;26.936;2023-02-03T00:06:38;98804.38;;;-4.82;100.0
64025;BME280;50266;57.446;26.936;2023-02-03T00:07:38;98806.42;;;-4.86;100.0
64025;BME280;50266;57.446;26.936;2023-02-03T00:08:38;98806.19;;;-4.92;100.0
64025;BME280;50266;57.446;26.936;2023-02-03T00:09:38;98813.49;;;-5.02;100.0
64025;BME280;50266;57.446;26.936;2023-02-03T00:10:38;98813.96;;;-5.05;100.0
64025;BME280;50266;57.446;26.936;2023-02-03T00:11:38;98814.61;;;-4.95;100.0
64025;BME280;50266;57.446;26.936;2023-02-03T00:12:38;98819.16;;;-4.98;100.0
64025;BME280;50266;57.446;26.936;2023-02-03T00:13:38;98817.31;;;-5.02;100.0
64025;BME280;50266;57.446;26.936;2023-02-03T00:14:39;98817.98;;;-5.07;100.0
64025;BME280;50266;57.446;26.936;2023-02-03T00:15:39;98823.85;;;-5.1;100.0
64025;BME280;50266;57.446;26.936;2023-02-03T00:16:39;98825.73;;;-5.09;100.0
64025;BME280;50266;57.446;26.936;2023-02-03T00:17:39;98827.81;;;-5.11;100.0
64025;BME280;50266;57.446;26.936;2023-02-03T00:18:39;98827.06;;;-5.22;100.0
64025;BME280;50266;57.446;26.936;2023-02-03T00:19:39;98827.46;;;-5.27;100.0
64025;BME280;50266;57.446;26.936;2023-02-03T00:20:39;98822.91;;;-5.3;100.0
64025;BME280;50266;57.446;26.936;2023-02-03T00:21:39;98826.14;;;-5.29;100.0
64025;BME280;50266;57.446;26.936;2023-02-03T00:22:39;98826.45;;;-5.24;100.0
64025;BME280;50266;57.446;26.936;2023-02-03T00:23:42;98828.92;;;-5.28;100.0
64025;BME280;50266;57.446;26.936;2023-02-03T00:24:39;98828.78;;;-5.38;100.0
64025;BME280;50266;57.446;26.936;2023-02-03T00:25:39;98828.17;;;-5.31;100.0
64025;BME280;50266;57.446;26.936;2023-02-03T00:26:39;98829.77;;;-5.31;100.0
64025;BME280;50266;57.446;26.936;2023-02-03T00:27:39;98829.52;;;-5.32;100.0
64025;BME280;50266;57.446;26.936;2023-02-03T00:28:39;98829.44;;;-5.39;100.0
64025;BME280;50266;57.446;26.936;2023-02-03T00:29:39;98824.35;;;-5.43;100.0
64025;BME280;50266;57.446;26.936;2023-02-03T00:30:39;98834.02;;;-5.38;100.0
64025;BME280;50266;57.446;26.936;2023-02-03T00:31:39;98833.34;;;-5.46;100.0
64025;BME280;50266;57.446;26.936;2023-02-03T00:32:39;98837.87;;;-5.46;100.0
64025;BME280;50266;57.446;26.936;2023-02-03T00:33:39;98838.09;;;-5.46;100.0
64025;BME280;50266;57.446;26.936;2023-02-03T00:34:39;98834.75;;;-5.47;100.0
64025;BME280;50266;57.446;26.936;2023-02-03T00:35:40;98844.52;;;-5.56;100.0
64025;BME280;50266;57.446;26.936;2023-02-03T00:36:40;98840.92;;;-5.58;100.0
64025;BME280;50266;57.446;26.936;2023-02-03T00:37:40;98844.07;;;-5.6;100.0
64025;BME280;50266;57.446;26.936;2023-02-03T00:38:40;98843.38;;;-5.62;100.0
64025;BME280;50266;57.446;26.936;2023-02-03T00:39:40;98843.77;;;-5.63;100.0
64025;BME280;50266;57.446;26.936;2023-02-03T00:40:40;98843.16;;;-5.66;100.0
64025;BME280;50266;57.446;26.936;2023-02-03T00:41:40;98853.77;;;-5.61;100.0
64025;BME280;50266;57.446;26.936;2023-02-03T00:42:40;98850.77;;;-5.62;100.0
64025;BME280;50266;57.446;26.936;2023-02-03T00:43:40;98852.59;;;-5.72;100.0
64025;BME280;50266;57.446;26.936;2023-02-03T00:44:40;98856.27;;;-5.77;100.0
64025;BME280;50266;57.446;26.936;2023-02-03T00:45:40;98857.16;;;-5.9;100.0
64025;BME280;50266;57.446;26.936;2023-02-03T00:46:40;98857.59;;;-5.83;100.0
64025;BME280;50266;57.446;26.936;2023-02-03T00:47:40;98849.24;;;-5.96;100.0
64025;BME280;50266;57.446;26.936;2023-02-03T00:48:40;98859.08;;;-5.93;100.0
64025;BME280;50266;57.446;26.936;2023-02-03T00:49:40;98859.95;;;-5.94;100.0
64025;BME280;50266;57.446;26.936;2023-02-03T00:50:40;98858.61;;;-5.95;100.0
64025;BME280;50266;57.446;26.936;2023-02-03T00:51:40;98856.94;;;-6.0;100.0
64025;BME280;50266;57.446;26.936;2023-02-03T00:52:40;98854.14;;;-6.09;100.0
64025;BME280;50266;57.446;26.936;2023-02-03T00:53:40;98857.91;;;-6.15;100.0
64025;BME280;50266;57.446;26.936;2023-02-03T00:54:40;98857.85;;;-6.29;100.0
64025;BME280;50266;57.446;26.936;2023-02-03T00:55:41;98859.41;;;-6.29;100.0
64025;BME280;50266;57.446;26.936;2023-02-03T00:56:40;98864.07;;;-6.26;100.0
64025;BME280;50266;57.446;26.936;2023-02-03T00:57:40;98864.5;;;-6.31;100.0
64025;BME280;50266;57.446;26.936;2023-02-03T00:58:40;98855.5;;;-6.31;100.0
64025;BME280;50266;57.446;26.936;2023-02-03T00:59:40;98863.33;;;-6.43;100.0
64025;BME280;50266;57.446;26.936;2023-02-03T01:00:40;98858.29;;;-6.37;100.0
64025;BME280;50266;57.446;26.936;2023-02-03T01:01:40;98866.45;;;-6.49;100.0
64025;BME280;50266;57.446;26.936;2023-02-03T01:02:40;98862.74;;;-6.44;100.0
64025;BME280;50266;57.446;26.936;2023-02-03T01:03:40;98864.21;;;-6.3;100.0
64025;BME280;50266;57.446;26.936;2023-02-03T01:04:40;98867.97;;;-6.45;100.0
64025;BME280;50266;57.446;26.936;2023-02-03T01:05:40;98867.58;;;-6.68;100.0
64025;BME280;50266;57.446;26.936;2023-02-03T01:06:40;98869.89;;;-6.64;100.0
64025;BME280;50266;57.446;26.936;2023-02-03T01:07:40;98868.77;;;-6.68;100.0
64025;BME280;50266;57.446;26.936;2023-02-03T01:08:40;98860.19;;;-6.48;100.0
64025;BME280;50266;57.446;26.936;2023-02-03T01:09:40;98865.48;;;-6.57;100.0
64025;BME280;50266;57.446;26.936;2023-02-03T01:10:40;98859.53;;;-6.53;100.0
64025;BME280;50266;57.446;26.936;2023-02-03T01:11:40;98860.03;;;-6.55;100.0
64025;BME280;50266;57.446;26.936;2023-02-03T01:12:40;98859.59;;;-6.64;100.0
64025;BME280;50266;57.446;26.936;2023-02-03T01:13:40;98863.92;;;-6.69;100.0
64025;BME280;50266;57.446;26.936;2023-02-03T01:14:40;98862.76;;;-6.61;100.0
64025;BME280;50266;57.446;26.936;2023-02-03T01:15:46;98862.14;;;-6.67;100.0
64025;BME280;50266;57.446;26.936;2023-02-03T01:16:43;98858.47;;;-6.48;100.0
64025;BME280;50266;57.446;26.936;2023-02-03T01:17:43;98865.15;;;-6.56;100.0
64025;BME280;50266;57.446;26.936;2023-02-03T01:18:43;98863.89;;;-6.61;100.0
64025;BME280;50266;57.446;26.936;2023-02-03T01:19:43;98868.11;;;-6.64;100.0
64025;BME280;50266;57.446;26.936;2023-02-03T01:20:43;98865.55;;;-6.59;100.0
64025;BME280;50266;57.446;26.936;2023-02-03T01:21:43;98861.69;;;-6.54;100.0
64025;BME280;50266;57.446;26.936;2023-02-03T01:22:43;98861.88;;;-6.51;100.0
64025;BME280;50266;57.446;26.936;2023-02-03T01:23:43;98861.58;;;-6.54;100.0
64025;BME280;50266;57.446;26.936;2023-02-03T01:24:43;98855.48;;;-6.52;100.0
64025;BME280;50266;57.446;26.936;2023-02-03T01:25:43;98855.74;;;-6.44;100.0
64025;BME280;50266;57.446;26.936;2023-02-03T01:26:43;98851.02;;;-6.3;100.0
64025;BME280;50266;57.446;26.936;2023-02-03T01:27:43;98844.92;;;-6.3;100.0
64025;BME280;50266;57.446;26.936;2023-02-03T01:28:43;98849.62;;;-6.25;100.0
64025;BME280;50266;57.446;26.936;2023-02-03T01:29:43;98848.81;;;-6.36;100.0
64025;BME280;50266;57.446;26.936;2023-02-03T01:30:43;98844.12;;;-6.46;100.0
64025;BME280;50266;57.446;26.936;2023-02-03T01:31:43;98841.69;;;-6.35;100.0
64025;BME280;50266;57.446;26.936;2023-02-03T01:32:43;98846.26;;;-6.28;100.0
64025;BME280;50266;57.446;26.936;2023-02-03T01:33:43;98844.8;;;-6.34;100.0
64025;BME280;50266;57.446;26.936;2023-02-03T01:34:43;98844.52;;;-6.26;100.0
64025;BME280;50266;57.446;26.936;2023-02-03T01:35:43;98850.05;;;-6.21;100.0
64025;BME280;50266;57.446;26.936;2023-02-03T01:36:43;98847.97;;;-6.18;100.0
64025;BME280;50266;57.446;26.936;2023-02-03T01:37:43;98843.23;;;-6.06;100.0
64025;BME280;50266;57.446;26.936;2023-02-03T01:38:43;98852.79;;;-6.14;100.0
64025;BME280;50266;57.446;26.936;2023-02-03T01:39:43;98848.57;;;-6.13;100.0
64025;BME280;50266;57.446;26.936;2023-02-03T01:40:43;98847.23;;;-6.14;100.0
64025;BME280;50266;57.446;26.936;2023-02-03T01:41:43;98848.52;;;-6.12;100.0
64025;BME280;50266;57.446;26.936;2023-02-03T01:42:43;98849.22;;;-6.13;100.0
64025;BME280;50266;57.446;26.936;2023-02-03T01:43:47;98848.36;;;-6.08;100.0
64025;BME280;50266;57.446;26.936;2023-02-03T01:44:45;98846.73;;;-6.06;100.0
64025;BME280;50266;57.446;26.936;2023-02-03T01:45:44;98846.98;;;-6.05;100.0
64025;BME280;50266;57.446;26.936;2023-02-03T01:46:45;98848.61;;;-6.05;100.0
64025;BME280;50266;57.446;26.936;2023-02-03T01:47:45;98848.66;;;-6.05;100.0
64025;BME280;50266;57.446;26.936;2023-02-03T01:48:44;98851.8;;;-6.07;100.0
64025;BME280;50266;57.446;26.936;2023-02-03T01:49:48;98849.45;;;-6.03;100.0
64025;BME280;50266;57.446;26.936;2023-02-03T01:50:48;98851.28;;;-6.01;100.0
64025;BME280;50266;57.446;26.936;2023-02-03T01:51:48;98852.72;;;-6.07;100.0
64025;BME280;50266;57.446;26.936;2023-02-03T01:52:51;98855.67;;;-6.11;100.0
64025;BME280;50266;57.446;26.936;2023-02-03T01:53:49;98859.4;;;-6.07;100.0
64025;BME280;50266;57.446;26.936;2023-02-03T01:54:49;98857.84;;;-6.06;100.0
64025;BME280;50266;57.446;26.936;2023-02-03T01:55:49;98856.59;;;-5.98;100.0
64025;BME280;50266;57.446;26.936;2023-02-03T01:56:55;98862.83;;;-5.96;100.0
64025;BME280;50266;57.446;26.936;2023-02-03T01:57:50;98864.33;;;-5.96;100.0
64025;BME280;50266;57.446;26.936;2023-02-03T01:58:49;98865.09;;;-5.97;100.0
64025;BME280;50266;57.446;26.936;2023-02-03T01:59:49;98865.73;;;-5.96;100.0
64025;BME280;50266;57.446;26.936;2023-02-03T02:00:49;98866.28;;;-5.97;100.0
64025;BME280;50266;57.446;26.936;2023-02-03T02:01:49;98862.39;;;-5.96;100.0
64025;BME280;50266;57.446;26.936;2023-02-03T02:02:49;98862.89;;;-5.98;100.0
64025;BME280;50266;57.446;26.936;2023-02-03T02:03:51;98868.34;;;-5.98;100.0
64025;BME280;50266;57.446;26.936;2023-02-03T02:04:52;98868.27;;;-5.97;100.0
64025;BME280;50266;57.446;26.936;2023-02-03T02:06:09;98865.38;;;-5.98;100.0
64025;BME280;50266;57.446;26.936;2023-02-03T02:06:50;98865.7;;;-5.98;100.0
64025;BME280;50266;57.446;26.936;2023-02-03T02:07:50;98866.69;;;-5.89;100.0
64025;BME280;50266;57.446;26.936;2023-02-03T02:08:51;98861.8;;;-5.9;100.0
64025;BME280;50266;57.446;26.936;2023-02-03T02:09:50;98864.92;;;-5.9;100.0
64025;BME280;50266;57.446;26.936;2023-02-03T02:10:50;98863.9;;;-5.9;100.0
64025;BME280;50266;57.446;26.936;2023-02-03T02:11:50;98862.86;;;-5.89;100.0
64025;BME280;50266;57.446;26.936;2023-02-03T02:12:51;98865.33;;;-5.88;100.0
64025;BME280;50266;57.446;26.936;2023-02-03T02:13:50;98860.03;;;-5.84;100.0
64025;BME280;50266;57.446;26.936;2023-02-03T02:14:50;98862.72;;;-5.83;100.0
64025;BME280;50266;57.446;26.936;2023-02-03T02:16:57;98862.62;;;-5.77;100.0
64025;BME280;50266;57.446;26.936;2023-02-03T02:22:21;98868.29;;;-5.72;100.0
64025;BME280;50266;57.446;26.936;2023-02-03T02:25:37;98879.84;;;-5.69;100.0
64025;BME280;50266;57.446;26.936;2023-02-03T02:28:33;98883.65;;;-5.61;100.0
64025;BME280;50266;57.446;26.936;2023-02-03T02:31:42;98878.78;;;-5.65;100.0
64025;BME280;50266;57.446;26.936;2023-02-03T02:33:56;98890.5;;;-5.59;100.0
64025;BME280;50266;57.446;26.936;2023-02-03T02:35:02;98890.96;;;-5.57;100.0
64025;BME280;50266;57.446;26.936;2023-02-03T02:35:57;98888.5;;;-5.54;100.0
64025;BME280;50266;57.446;26.936;2023-02-03T02:37:55;98893.28;;;-5.58;100.0
64025;BME280;50266;57.446;26.936;2023-02-03T02:38:59;98889.03;;;-5.58;100.0
64025;BME280;50266;57.446;26.936;2023-02-03T02:39:56;98890.12;;;-5.62;100.0
64025;BME280;50266;57.446;26.936;2023-02-03T02:40:59;98890.09;;;-5.52;100.0
64025;BME280;50266;57.446;26.936;2023-02-03T02:42:09;98890.4;;;-5.55;100.0
64025;BME280;50266;57.446;26.936;2023-02-03T02:43:03;98885.53;;;-5.61;100.0
64025;BME280;50266;57.446;26.936;2023-02-03T02:44:16;98882.8;;;-5.6;100.0
64025;BME280;50266;57.446;26.936;2023-02-03T02:45:09;98878.28;;;-5.47;100.0
64025;BME280;50266;57.446;26.936;2023-02-03T02:46:13;98874.16;;;-5.45;100.0
64025;BME280;50266;57.446;26.936;2023-02-03T02:47:16;98878.81;;;-5.51;100.0
64025;BME280;50266;57.446;26.936;2023-02-03T02:48:26;98881.57;;;-5.57;100.0
64025;BME280;50266;57.446;26.936;2023-02-03T02:49:18;98884.33;;;-5.57;100.0
64025;BME280;50266;57.446;26.936;2023-02-03T02:50:18;98890.43;;;-5.58;100.0
64025;BME280;50266;57.446;26.936;2023-02-03T02:51:17;98890.95;;;-5.57;100.0
64025;BME280;50266;57.446;26.936;2023-02-03T02:52:17;98892.19;;;-5.56;100.0
64025;BME280;50266;57.446;26.936;2023-02-03T02:53:17;98895.16;;;-5.51;100.0
64025;BME280;50266;57.446;26.936;2023-02-03T02:54:18;98894.83;;;-5.51;100.0
64025;BME280;50266;57.446;26.936;2023-02-03T02:55:21;98895.31;;;-5.55;100.0
64025;BME280;50266;57.446;26.936;2023-02-03T02:56:19;98892.25;;;-5.57;100.0
64025;BME280;50266;57.446;26.936;2023-02-03T02:57:19;98894.22;;;-5.59;100.0
64025;BME280;50266;57.446;26.936;2023-02-03T02:58:19;98891.25;;;-5.61;100.0
64025;BME280;50266;57.446;26.936;2023-02-03T02:59:19;98885.48;;;-5.49;100.0
64025;BME280;50266;57.446;26.936;2023-02-03T03:00:19;98885.66;;;-5.56;100.0
64025;BME280;50266;57.446;26.936;2023-02-03T03:01:19;98884.77;;;-5.54;100.0
64025;BME280;50266;57.446;26.936;2023-02-03T03:02:19;98887.3;;;-5.53;100.0
64025;BME280;50266;57.446;26.936;2023-02-03T03:03:20;98887.41;;;-5.52;100.0
64025;BME280;50266;57.446;26.936;2023-02-03T03:04:21;98881.89;;;-5.46;100.0
64025;BME280;50266;57.446;26.936;2023-02-03T03:05:19;98881.78;;;-5.47;100.0
64025;BME280;50266;57.446;26.936;2023-02-03T03:06:26;98880.58;;;-5.5;100.0
64025;BME280;50266;57.446;26.936;2023-02-03T03:07:21;98885.94;;;-5.46;100.0
64025;BME280;50266;57.446;26.936;2023-02-03T03:08:21;98878.08;;;-5.48;100.0
64025;BME280;50266;57.446;26.936;2023-02-03T03:09:26;98878.95;;;-5.44;100.0
64025;BME280;50266;57.446;26.936;2023-02-03T03:10:21;98879.36;;;-5.42;100.0
64025;BME280;50266;57.446;26.936;2023-02-03T03:11:20;98879.41;;;-5.47;100.0
64025;BME280;50266;57.446;26.936;2023-02-03T03:12:25;98879.52;;;-5.47;100.0
64025;BME280;50266;57.446;26.936;2023-02-03T03:13:24;98880.72;;;-5.48;100.0
64025;BME280;50266;57.446;26.936;2023-02-03T03:14:24;98883.38;;;-5.44;100.0
64025;BME280;50266;57.446;26.936;2023-02-03T03:15:25;98878.0;;;-5.41;100.0
64025;BME280;50266;57.446;26.936;2023-02-03T03:16:24;98880.56;;;-5.48;100.0
64025;BME280;50266;57.446;26.936;2023-02-03T03:17:25;98880.53;;;-5.45;100.0
64025;BME280;50266;57.446;26.936;2023-02-03T03:18:25;98884.92;;;-5.48;100.0
64025;BME280;50266;57.446;26.936;2023-02-03T03:19:24;98885.79;;;-5.43;100.0
64025;BME280;50266;57.446;26.936;2023-02-03T03:20:24;98886.58;;;-5.46;100.0
64025;BME280;50266;57.446;26.936;2023-02-03T03:21:28;98886.28;;;-5.48;100.0
64025;BME280;50266;57.446;26.936;2023-02-03T03:22:27;98890.97;;;-5.48;100.0
64025;BME280;50266;57.446;26.936;2023-02-03T03:23:27;98888.72;;;-5.49;100.0
64025;BME280;50266;57.446;26.936;2023-02-03T03:24:28;98885.7;;;-5.5;100.0
64025;BME280;50266;57.446;26.936;2023-02-03T03:25:29;98883.14;;;-5.47;100.0
64025;BME280;50266;57.446;26.936;2023-02-03T03:26:29;98888.83;;;-5.49;100.0
64025;BME280;50266;57.446;26.936;2023-02-03T03:27:33;98884.16;;;-5.41;100.0
64025;BME280;50266;57.446;26.936;2023-02-03T03:28:34;98888.38;;;-5.37;100.0
64025;BME280;50266;57.446;26.936;2023-02-03T03:29:37;98888.64;;;-5.43;100.0
64025;BME280;50266;57.446;26.936;2023-02-03T03:30:36;98885.34;;;-5.46;100.0
64025;BME280;50266;57.446;26.936;2023-02-03T03:31:36;98889.33;;;-5.41;100.0
64025;BME280;50266;57.446;26.936;2023-02-03T03:32:36;98894.03;;;-5.41;100.0
64025;BME280;50266;57.446;26.936;2023-02-03T03:33:36;98893.89;;;-5.37;100.0
64025;BME280;50266;57.446;26.936;2023-02-03T03:34:36;98895.41;;;-5.38;100.0
64025;BME280;50266;57.446;26.936;2023-02-03T03:35:38;98897.86;;;-5.35;100.0
64025;BME280;50266;57.446;26.936;2023-02-03T03:36:41;98902.74;;;-5.33;100.0
64025;BME280;50266;57.446;26.936;2023-02-03T03:37:43;98902.25;;;-5.37;100.0
64025;BME280;50266;57.446;26.936;2023-02-03T03:38:41;98898.54;;;-5.38;100.0
64025;BME280;50266;57.446;26.936;2023-02-03T03:40:42;98905.08;;;-5.34;100.0
64025;BME280;50266;57.446;26.936;2023-02-03T03:42:47;98909.07;;;-5.34;100.0
64025;BME280;50266;57.446;26.936;2023-02-03T03:43:46;98906.03;;;-5.32;100.0
64025;BME280;50266;57.446;26.936;2023-02-03T03:44:50;98908.3;;;-5.32;100.0
64025;BME280;50266;57.446;26.936;2023-02-03T03:46:03;98907.63;;;-5.36;100.0
64025;BME280;50266;57.446;26.936;2023-02-03T03:46:55;98904.7;;;-5.39;100.0
64025;BME280;50266;57.446;26.936;2023-02-03T03:49:00;98910.06;;;-5.37;100.0
64025;BME280;50266;57.446;26.936;2023-02-03T03:49:57;98905.47;;;-5.36;100.0
64025;BME280;50266;57.446;26.936;2023-02-03T03:51:17;98908.38;;;-5.35;100.0
64025;BME280;50266;57.446;26.936;2023-02-03T03:52:00;98905.94;;;-5.33;100.0
64025;BME280;50266;57.446;26.936;2023-02-03T03:53:00;98905.61;;;-5.33;100.0
64025;BME280;50266;57.446;26.936;2023-02-03T03:54:02;98911.38;;;-5.33;100.0
64025;BME280;50266;57.446;26.936;2023-02-03T03:55:00;98908.55;;;-5.31;100.0
64025;BME280;50266;57.446;26.936;2023-02-03T03:56:00;98904.19;;;-5.31;100.0
64025;BME280;50266;57.446;26.936;2023-02-03T03:57:02;98903.53;;;-5.36;100.0
64025;BME280;50266;57.446;26.936;2023-02-03T03:58:06;98907.33;;;-5.33;100.0
64025;BME280;50266;57.446;26.936;2023-02-03T03:59:01;98906.92;;;-5.26;100.0
64025;BME280;50266;57.446;26.936;2023-02-03T04:00:02;98909.16;;;-5.28;100.0
64025;BME280;50266;57.446;26.936;2023-02-03T04:01:01;98904.98;;;-5.25;100.0
64025;BME280;50266;57.446;26.936;2023-02-03T04:02:00;98904.58;;;-5.19;100.0
64025;BME280;50266;57.446;26.936;2023-02-03T04:03:10;98910.16;;;-5.21;100.0
64025;BME280;50266;57.446;26.936;2023-02-03T04:04:05;98909.65;;;-5.19;100.0
64025;BME280;50266;57.446;26.936;2023-02-03T04:05:03;98910.78;;;-5.23;100.0
64025;BME280;50266;57.446;26.936;2023-02-03T04:06:03;98905.54;;;-5.23;100.0
64025;BME280;50266;57.446;26.936;2023-02-03T04:07:03;98907.42;;;-5.23;100.0
64025;BME280;50266;57.446;26.936;2023-02-03T04:08:03;98899.81;;;-5.22;100.0
64025;BME280;50266;57.446;26.936;2023-02-03T04:09:03;98899.75;;;-5.22;100.0
64025;BME280;50266;57.446;26.936;2023-02-03T04:10:04;98900.72;;;-5.21;100.0
64025;BME280;50266;57.446;26.936;2023-02-03T04:11:04;98902.15;;;-5.24;100.0
64025;BME280;50266;57.446;26.936;2023-02-03T04:12:03;98904.17;;;-5.25;100.0
64025;BME280;50266;57.446;26.936;2023-02-03T04:13:04;98905.02;;;-5.25;100.0
64025;BME280;50266;57.446;26.936;2023-02-03T04:14:03;98904.47;;;-5.23;100.0
64025;BME280;50266;57.446;26.936;2023-02-03T04:15:04;98903.58;;;-5.21;100.0
64025;BME280;50266;57.446;26.936;2023-02-03T04:16:04;98905.7;;;-5.16;100.0
64025;BME280;50266;57.446;26.936;2023-02-03T04:17:03;98905.45;;;-5.17;100.0
64025;BME280;50266;57.446;26.936;2023-02-03T04:18:04;98900.11;;;-5.2;100.0
64025;BME280;50266;57.446;26.936;2023-02-03T04:19:03;98902.92;;;-5.19;100.0
64025;BME280;50266;57.446;26.936;2023-02-03T04:20:04;98905.05;;;-5.16;100.0
64025;BME280;50266;57.446;26.936;2023-02-03T04:21:04;98901.56;;;-5.17;100.0
64025;BME280;50266;57.446;26.936;2023-02-03T04:22:04;98904.27;;;-5.18;100.0
64025;BME280;50266;57.446;26.936;2023-02-03T04:23:03;98905.52;;;-5.21;100.0
64025;BME280;50266;57.446;26.936;2023-02-03T04:24:04;98903.56;;;-5.2;100.0
64025;BME280;50266;57.446;26.936;2023-02-03T04:25:04;98905.39;;;-5.19;100.0
64025;BME280;50266;57.446;26.936;2023-02-03T04:26:03;98904.95;;;-5.17;100.0
64025;BME280;50266;57.446;26.936;2023-02-03T04:27:03;98904.83;;;-5.15;100.0
64025;BME280;50266;57.446;26.936;2023-02-03T04:28:04;98901.72;;;-5.08;100.0
64025;BME280;50266;57.446;26.936;2023-02-03T04:29:04;98896.17;;;-5.14;100.0
64025;BME280;50266;57.446;26.936;2023-02-03T04:30:04;98901.19;;;-5.13;100.0
64025;BME280;50266;57.446;26.936;2023-02-03T04:31:04;98899.98;;;-5.12;100.0
64025;BME280;50266;57.446;26.936;2023-02-03T04:32:04;98900.86;;;-5.13;100.0
64025;BME280;50266;57.446;26.936;2023-02-03T04:33:04;98898.39;;;-5.01;100.0
64025;BME280;50266;57.446;26.936;2023-02-03T04:34:04;98901.47;;;-5.06;100.0
64025;BME280;50266;57.446;26.936;2023-02-03T04:35:04;98899.73;;;-5.09;100.0
64025;BME280;50266;57.446;26.936;2023-02-03T04:36:04;98899.47;;;-5.14;100.0
64025;BME280;50266;57.446;26.936;2023-02-03T04:37:04;98894.77;;;-5.09;100.0
64025;BME280;50266;57.446;26.936;2023-02-03T04:38:04;98902.92;;;-5.09;100.0
64025;BME280;50266;57.446;26.936;2023-02-03T04:39:04;98898.69;;;-5.12;100.0
64025;BME280;50266;57.446;26.936;2023-02-03T04:40:04;98902.23;;;-5.07;100.0
64025;BME280;50266;57.446;26.936;2023-02-03T04:41:04;98900.55;;;-5.1;100.0
64025;BME280;50266;57.446;26.936;2023-02-03T04:42:04;98900.45;;;-5.06;100.0
64025;BME280;50266;57.446;26.936;2023-02-03T04:43:04;98903.38;;;-5.03;100.0
64025;BME280;50266;57.446;26.936;2023-02-03T04:44:04;98901.81;;;-5.11;100.0
64025;BME280;50266;57.446;26.936;2023-02-03T04:45:04;98901.95;;;-5.14;100.0
64025;BME280;50266;57.446;26.936;2023-02-03T04:46:04;98903.55;;;-5.13;100.0
64025;BME280;50266;57.446;26.936;2023-02-03T04:47:04;98902.67;;;-5.15;100.0
64025;BME280;50266;57.446;26.936;2023-02-03T04:48:04;98899.55;;;-5.12;100.0
64025;BME280;50266;57.446;26.936;2023-02-03T04:49:04;98899.91;;;-5.14;100.0
64025;BME280;50266;57.446;26.936;2023-02-03T04:50:04;98901.81;;;-5.16;100.0
64025;BME280;50266;57.446;26.936;2023-02-03T04:51:06;98907.08;;;-5.14;100.0
64025;BME280;50266;57.446;26.936;2023-02-03T04:52:04;98907.64;;;-5.07;100.0
64025;BME280;50266;57.446;26.936;2023-02-03T04:53:04;98904.16;;;-5.1;100.0
64025;BME280;50266;57.446;26.936;2023-02-03T04:54:04;98908.77;;;-5.11;100.0
64025;BME280;50266;57.446;26.936;2023-02-03T04:55:04;98908.61;;;-5.11;100.0
64025;BME280;50266;57.446;26.936;2023-02-03T04:56:04;98913.28;;;-5.13;100.0
64025;BME280;50266;57.446;26.936;2023-02-03T04:57:04;98909.2;;;-5.15;100.0
64025;BME280;50266;57.446;26.936;2023-02-03T04:58:04;98911.03;;;-5.15;100.0
64025;BME280;50266;57.446;26.936;2023-02-03T04:59:04;98909.45;;;-5.01;100.0
64025;BME280;50266;57.446;26.936;2023-02-03T05:00:04;98913.47;;;-5.07;100.0
64025;BME280;50266;57.446;26.936;2023-02-03T05:01:05;98907.61;;;-5.0;100.0
64025;BME280;50266;57.446;26.936;2023-02-03T05:02:04;98914.48;;;-5.06;100.0
64025;BME280;50266;57.446;26.936;2023-02-03T05:03:04;98911.13;;;-4.95;100.0
64025;BME280;50266;57.446;26.936;2023-02-03T05:04:04;98916.06;;;-5.03;100.0
64025;BME280;50266;57.446;26.936;2023-02-03T05:05:04;98915.16;;;-5.05;100.0
64025;BME280;50266;57.446;26.936;2023-02-03T05:06:04;98912.81;;;-5.06;100.0
64025;BME280;50266;57.446;26.936;2023-02-03T05:07:04;98913.8;;;-5.03;100.0
64025;BME280;50266;57.446;26.936;2023-02-03T05:08:04;98915.92;;;-5.05;100.0
64025;BME280;50266;57.446;26.936;2023-02-03T05:09:04;98913.63;;;-5.03;100.0
64025;BME280;50266;57.446;26.936;2023-02-03T05:10:04;98908.94;;;-4.89;100.0
64025;BME280;50266;57.446;26.936;2023-02-03T05:11:04;98914.22;;;-4.97;100.0
64025;BME280;50266;57.446;26.936;2023-02-03T05:12:04;98908.17;;;-5.02;100.0
64025;BME280;50266;57.446;26.936;2023-02-03T05:13:04;98910.22;;;-5.01;100.0
64025;BME280;50266;57.446;26.936;2023-02-03T05:14:04;98912.68;;;-5.0;100.0
64025;BME280;50266;57.446;26.936;2023-02-03T05:15:04;98913.05;;;-4.99;100.0
64025;BME280;50266;57.446;26.936;2023-02-03T05:16:04;98915.98;;;-5.0;100.0
64025;BME280;50266;57.446;26.936;2023-02-03T05:17:04;98911.62;;;-5.02;100.0
64025;BME280;50266;57.446;26.936;2023-02-03T05:18:04;98911.62;;;-4.95;100.0
64025;BME280;50266;57.446;26.936;2023-02-03T05:19:04;98908.64;;;-4.94;100.0
64025;BME280;50266;57.446;26.936;2023-02-03T05:20:05;98914.52;;;-5.0;100.0
64025;BME280;50266;57.446;26.936;2023-02-03T05:21:04;98912.88;;;-5.03;100.0
64025;BME280;50266;57.446;26.936;2023-02-03T05:22:04;98911.7;;;-5.04;100.0
64025;BME280;50266;57.446;26.936;2023-02-03T05:23:04;98910.29;;;-5.03;100.0
64025;BME280;50266;57.446;26.936;2023-02-03T05:24:04;98908.2;;;-5.05;100.0
64025;BME280;50266;57.446;26.936;2023-02-03T05:25:05;98910.28;;;-5.02;100.0
64025;BME280;50266;57.446;26.936;2023-02-03T05:26:04;98910.08;;;-4.99;100.0
64025;BME280;50266;57.446;26.936;2023-02-03T05:27:04;98913.42;;;-5.03;100.0
64025;BME280;50266;57.446;26.936;2023-02-03T05:28:04;98915.35;;;-4.92;100.0
64025;BME280;50266;57.446;26.936;2023-02-03T05:29:04;98915.7;;;-5.0;100.0
64025;BME280;50266;57.446;26.936;2023-02-03T05:30:05;98913.5;;;-5.01;100.0
64025;BME280;50266;57.446;26.936;2023-02-03T05:31:04;98916.12;;;-5.03;100.0
64025;BME280;50266;57.446;26.936;2023-02-03T05:32:04;98910.98;;;-5.06;100.0
64025;BME280;50266;57.446;26.936;2023-02-03T05:33:04;98919.41;;;-5.03;100.0